Time;durP1;ratioP1;P1;durP2;ratioP2;P2;SDS_P1;SDS_P2;PMS_P1;PMS_P2;Temp;Humidity;BMP_temperature;BMP_pressure;BME280_temperature;BME280_humidity;BME280_pressure;Samples;Min_cycle;Max_cycle;Signal;HPM_P1;HPM_P2
2022/12/03 09:08:22;;;;;;;;;64.00;48.75;;;;;;;;6500348;31;9822;-57
2022/12/03 09:14:25;;;;;;;;;53.00;46.67;;;;;;;;6501271;38;8859;-59
2022/12/03 09:20:30;;;;;;;;;63.75;50.25;;;;;;;;6501572;46;8824;-58
2022/12/03 09:26:32;;;;;;;;;61.50;50.00;;;;;;;;6501425;31;8922;-59
2022/12/03 09:32:34;;;;;;;;;66.25;49.25;;;;;;;;6501134;38;8888;-60
2022/12/03 09:38:36;;;;;;;;;58.50;47.75;;;;;;;;6501953;36;8913;-58
2022/12/03 09:44:38;;;;;;;;;56.75;48.50;;;;;;;;6500651;46;8927;-58
2022/12/03 09:50:43;;;;;;;;;67.75;52.75;;;;;;;;6502026;38;8865;-59
2022/12/03 09:56:46;;;;;;;;;55.50;46.50;;;;;;;;6500941;38;8946;-58
2022/12/03 10:02:51;;;;;;;;;71.50;53.00;;;;;;;;6500717;38;9675;-59
2022/12/03 10:08:54;;;;;;;;;57.50;47.75;;;;;;;;6501403;38;9003;-57
2022/12/03 10:14:57;;;;;;;;;62.00;48.50;;;;;;;;6498594;31;8878;-58
2022/12/03 10:20:59;;;;;;;;;62.25;48.75;;;;;;;;6492086;39;8953;-57
2022/12/03 10:27:24;;;;;;;;;66.50;51.50;;;;;;;;6491590;39;8922;-58
2022/12/03 10:33:33;;;;;;;;;61.75;52.25;;;;;;;;6491626;46;8857;-57
2022/12/03 10:39:57;;;;;;;;;64.50;52.50;;;;;;;;6491594;31;8896;-58
2022/12/03 10:46:10;;;;;;;;;58.25;48.25;;;;;;;;6491587;39;8915;-57
2022/12/03 10:52:22;;;;;;;;;71.50;56.25;;;;;;;;6492431;39;8858;-57
2022/12/03 10:58:30;;;;;;;;;65.25;52.75;;;;;;;;6491384;39;8972;-57
2022/12/03 11:04:34;;;;;;;;;65.50;52.25;;;;;;;;6491883;39;8984;-56
2022/12/03 11:10:37;;;;;;;;;71.00;55.00;;;;;;;;6491406;31;8909;-57
2022/12/03 11:16:40;;;;;;;;;53.00;42.25;;;;;;;;6491818;46;8889;-59
2022/12/03 11:22:49;;;;;;;;;62.75;49.50;;;;;;;;6491517;39;8956;-56
2022/12/03 11:28:57;;;;;;;;;85.00;70.33;;;;;;;;6490919;39;8886;-56
2022/12/03 11:35:22;;;;;;;;;51.75;46.25;;;;;;;;6492616;39;8875;-59
2022/12/03 11:41:32;;;;;;;;;59.50;47.25;;;;;;;;6493056;31;8850;-60
2022/12/03 11:47:44;;;;;;;;;58.75;50.00;;;;;;;;6491927;31;9492;-57
2022/12/03 11:53:48;;;;;;;;;61.75;50.00;;;;;;;;6491106;39;8885;-58
2022/12/03 12:00:22;;;;;;;;;86.33;65.33;;;;;;;;6491709;31;8968;-58
2022/12/03 12:06:24;;;;;;;;;185.25;160.00;;;;;;;;6490129;46;9000;-57
2022/12/03 12:12:36;;;;;;;;;74.75;59.75;;;;;;;;6491740;39;8965;-58
2022/12/03 12:18:40;;;;;;;;;92.00;72.67;;;;;;;;6491720;31;8827;-59
2022/12/03 12:24:44;;;;;;;;;96.67;73.00;;;;;;;;6490461;39;8932;-59
2022/12/03 12:30:46;;;;;;;;;86.67;69.67;;;;;;;;6490995;39;8882;-58
2022/12/03 12:36:53;;;;;;;;;98.67;74.67;;;;;;;;6489294;46;9040;-59
2022/12/03 12:43:19;;;;;;;;;90.67;67.00;;;;;;;;6490637;39;8887;-57
2022/12/03 12:49:27;;;;;;;;;76.50;59.50;;;;;;;;6490634;39;8926;-60
2022/12/03 12:55:30;;;;;;;;;84.25;65.00;;;;;;;;6490288;31;9010;-57
2022/12/03 13:01:34;;;;;;;;;84.50;67.50;;;;;;;;6490322;47;8988;-59
2022/12/03 13:07:42;;;;;;;;;107.00;79.33;;;;;;;;6490169;39;8981;-57
2022/12/03 13:13:45;;;;;;;;;60.75;52.25;;;;;;;;6491528;39;8855;-58
2022/12/03 13:19:47;;;;;;;;;65.00;51.50;;;;;;;;6490934;39;8874;-58
2022/12/03 13:25:59;;;;;;;;;105.67;79.67;;;;;;;;6489965;39;9472;-59
2022/12/03 13:32:29;;;;;;;;;104.67;80.00;;;;;;;;6490912;31;8839;-56
2022/12/03 13:38:31;;;;;;;;;66.00;52.00;;;;;;;;6489160;46;8880;-58
2022/12/03 13:44:48;;;;;;;;;71.50;53.25;;;;;;;;6490394;31;8881;-57
2022/12/03 13:50:51;;;;;;;;;65.00;49.00;;;;;;;;6489780;39;8912;-60
2022/12/03 13:56:54;;;;;;;;;43.25;39.00;;;;;;;;6492309;39;8851;-57
2022/12/03 14:02:57;;;;;;;;;54.50;42.75;;;;;;;;6491752;39;8943;-58
2022/12/03 14:09:01;;;;;;;;;21.25;19.50;;;;;;;;6489716;39;8942;-59
2022/12/03 14:15:07;;;;;;;;;44.75;40.00;;;;;;;;6490376;46;8900;-59
2022/12/03 14:21:10;;;;;;;;;50.50;43.25;;;;;;;;6490604;31;10016;-59
2022/12/03 14:27:12;;;;;;;;;45.50;42.25;;;;;;;;6489718;46;8936;-56
2022/12/03 14:33:14;;;;;;;;;41.25;33.25;;;;;;;;6489874;39;8893;-57
2022/12/03 14:39:17;;;;;;;;;42.75;41.00;;;;;;;;6489850;46;8923;-59
2022/12/03 14:45:23;;;;;;;;;52.75;45.00;;;;;;;;6489913;46;8890;-57
2022/12/03 14:51:25;;;;;;;;;55.25;46.25;;;;;;;;6489725;31;9031;-57
2022/12/03 14:57:28;;;;;;;;;63.75;47.50;;;;;;;;6490282;39;8891;-57
2022/12/03 15:03:30;;;;;;;;;48.00;45.25;;;;;;;;6490447;39;8960;-56
2022/12/03 15:09:33;;;;;;;;;53.75;44.75;;;;;;;;6489528;31;9005;-58
2022/12/03 15:15:37;;;;;;;;;52.75;42.25;;;;;;;;6488037;46;8876;-56
2022/12/03 15:21:39;;;;;;;;;63.25;49.00;;;;;;;;6489185;39;9538;-55
2022/12/03 15:27:42;;;;;;;;;67.00;50.75;;;;;;;;6488645;39;8915;-58
2022/12/03 15:33:46;;;;;;;;;56.25;49.00;;;;;;;;6488690;46;9025;-57
2022/12/03 15:39:49;;;;;;;;;59.50;48.75;;;;;;;;6488984;36;8884;-58
2022/12/03 15:45:51;;;;;;;;;52.50;45.75;;;;;;;;6488485;39;9501;-57
2022/12/03 15:51:56;;;;;;;;;42.75;40.50;;;;;;;;6488918;39;8867;-57
2022/12/03 15:57:58;;;;;;;;;55.50;46.50;;;;;;;;6489177;39;8856;-58
2022/12/03 16:04:00;;;;;;;;;58.50;48.00;;;;;;;;6489089;39;9001;-57
2022/12/03 16:10:07;;;;;;;;;50.25;45.75;;;;;;;;6487747;46;8923;-58
2022/12/03 16:16:10;;;;;;;;;54.50;46.50;;;;;;;;6488792;39;8879;-57
2022/12/03 16:22:13;;;;;;;;;64.25;50.50;;;;;;;;6489146;31;8868;-58
2022/12/03 16:28:16;;;;;;;;;42.75;34.75;;;;;;;;6488033;39;8969;-56
2022/12/03 16:34:19;;;;;;;;;48.00;41.25;;;;;;;;6487988;31;8880;-57
2022/12/03 16:40:22;;;;;;;;;42.00;34.75;;;;;;;;6487669;46;8911;-59
2022/12/03 16:46:26;;;;;;;;;35.75;31.00;;;;;;;;6487982;46;8947;-58
2022/12/03 16:52:30;;;;;;;;;40.50;36.75;;;;;;;;6488211;39;8923;-58
2022/12/03 16:58:33;;;;;;;;;37.00;32.75;;;;;;;;6487429;39;8893;-58
2022/12/03 17:04:39;;;;;;;;;45.75;42.25;;;;;;;;6488081;39;9021;-59
2022/12/03 17:10:41;;;;;;;;;38.75;36.00;;;;;;;;6487234;47;8931;-60
2022/12/03 17:16:44;;;;;;;;;36.75;27.25;;;;;;;;6488390;31;8855;-57
2022/12/03 17:22:47;;;;;;;;;42.25;39.25;;;;;;;;6486710;47;8868;-56
2022/12/03 17:28:52;;;;;;;;;48.75;39.50;;;;;;;;6489495;31;8939;-57
2022/12/03 17:34:54;;;;;;;;;43.50;38.00;;;;;;;;6490059;31;8876;-58
2022/12/03 17:40:57;;;;;;;;;39.50;36.00;;;;;;;;6489544;31;8891;-57
2022/12/03 17:46:59;;;;;;;;;43.00;36.50;;;;;;;;6489069;39;8928;-58
2022/12/03 17:53:04;;;;;;;;;31.25;24.75;;;;;;;;6490023;39;8913;-58
2022/12/03 17:59:06;;;;;;;;;35.25;34.00;;;;;;;;6489328;39;8927;-59
2022/12/03 18:05:09;;;;;;;;;45.50;36.50;;;;;;;;6489392;39;8966;-58
2022/12/03 18:11:14;;;;;;;;;33.00;33.00;;;;;;;;6488694;31;8947;-57
2022/12/03 18:17:17;;;;;;;;;42.75;31.50;;;;;;;;6489007;39;9490;-58
2022/12/03 18:23:22;;;;;;;;;43.00;39.00;;;;;;;;6489123;31;8868;-57
2022/12/03 18:29:24;;;;;;;;;39.50;35.50;;;;;;;;6489020;46;8954;-59
2022/12/03 18:35:28;;;;;;;;;35.00;33.75;;;;;;;;6488908;46;8872;-59
2022/12/03 18:41:32;;;;;;;;;42.00;36.75;;;;;;;;6488539;46;8903;-58
2022/12/03 18:47:35;;;;;;;;;29.50;28.75;;;;;;;;6490200;39;8900;-58
2022/12/03 18:53:38;;;;;;;;;35.75;29.75;;;;;;;;6489362;39;8942;-58
2022/12/03 18:59:41;;;;;;;;;45.50;38.00;;;;;;;;6488336;46;8884;-56
2022/12/03 19:05:43;;;;;;;;;34.50;31.00;;;;;;;;6489036;46;9017;-58
2022/12/03 19:11:45;;;;;;;;;40.75;33.50;;;;;;;;6488181;46;8900;-58
2022/12/03 19:17:48;;;;;;;;;36.00;35.00;;;;;;;;6488085;39;8879;-57
2022/12/03 19:23:51;;;;;;;;;31.00;30.00;;;;;;;;6489619;39;8876;-58
2022/12/03 19:30:15;;;;;;;;;30.75;26.75;;;;;;;;6488332;39;8886;-56
2022/12/03 19:36:21;;;;;;;;;33.00;29.50;;;;;;;;6487865;46;8935;-58
2022/12/03 19:42:24;;;;;;;;;33.50;28.50;;;;;;;;6487862;39;8916;-58
2022/12/03 19:48:30;;;;;;;;;33.50;32.00;;;;;;;;6487960;39;8939;-60
2022/12/03 19:54:33;;;;;;;;;32.00;31.00;;;;;;;;6487936;31;9080;-58
2022/12/03 20:00:36;;;;;;;;;32.00;27.50;;;;;;;;6488830;31;8876;-57
2022/12/03 20:06:39;;;;;;;;;35.75;25.50;;;;;;;;6489590;39;8979;-58
2022/12/03 20:12:41;;;;;;;;;32.50;29.00;;;;;;;;6488347;46;8888;-57
2022/12/03 20:18:45;;;;;;;;;36.25;28.50;;;;;;;;6488623;39;9065;-57
2022/12/03 20:24:48;;;;;;;;;31.25;29.75;;;;;;;;6488527;39;9038;-57
2022/12/03 20:31:00;;;;;;;;;25.00;24.50;;;;;;;;6487741;39;9053;-57
2022/12/03 20:37:04;;;;;;;;;29.50;23.50;;;;;;;;6488891;31;9070;-58
2022/12/03 20:43:06;;;;;;;;;27.50;26.50;;;;;;;;6487556;46;8974;-58
2022/12/03 20:49:10;;;;;;;;;26.00;26.00;;;;;;;;6488006;46;8964;-58
2022/12/03 20:55:12;;;;;;;;;27.00;24.25;;;;;;;;6487544;39;8935;-58
2022/12/03 21:01:22;;;;;;;;;27.50;25.50;;;;;;;;6487222;31;8960;-58
2022/12/03 21:07:24;;;;;;;;;30.50;29.50;;;;;;;;6486628;39;9006;-59
2022/12/03 21:13:29;;;;;;;;;29.50;25.00;;;;;;;;6487240;31;8848;-58
2022/12/03 21:19:33;;;;;;;;;35.50;22.00;;;;;;;;6487991;39;8922;-58
2022/12/03 21:25:36;;;;;;;;;25.00;23.50;;;;;;;;6487429;31;8916;-58
2022/12/03 21:31:38;;;;;;;;;37.00;27.75;;;;;;;;6487947;39;8855;-56
2022/12/03 21:37:41;;;;;;;;;36.50;31.00;;;;;;;;6486893;31;8876;-58
2022/12/03 21:43:43;;;;;;;;;30.25;27.50;;;;;;;;6487660;39;9590;-56
2022/12/03 21:49:45;;;;;;;;;27.50;23.25;;;;;;;;6488445;31;8945;-57
2022/12/03 21:55:49;;;;;;;;;36.75;33.00;;;;;;;;6487573;31;9002;-57
2022/12/03 22:01:52;;;;;;;;;40.25;33.50;;;;;;;;6487049;39;8900;-55
2022/12/03 22:07:54;;;;;;;;;22.75;20.75;;;;;;;;6487653;39;8978;-58
2022/12/03 22:13:58;;;;;;;;;29.75;24.00;;;;;;;;6488084;46;8860;-57
2022/12/03 22:20:02;;;;;;;;;36.75;27.50;;;;;;;;6489839;31;8902;-57
2022/12/03 22:26:11;;;;;;;;;37.25;29.50;;;;;;;;6488895;39;8899;-54
2022/12/03 22:32:13;;;;;;;;;32.00;27.25;;;;;;;;6489015;31;8882;-57
2022/12/03 22:38:16;;;;;;;;;36.75;30.75;;;;;;;;6488758;46;8967;-56
2022/12/03 22:44:20;;;;;;;;;35.00;26.50;;;;;;;;6488260;31;8931;-58
2022/12/03 22:50:22;;;;;;;;;32.00;26.00;;;;;;;;6489000;46;8995;-57
2022/12/03 22:56:27;;;;;;;;;36.00;30.75;;;;;;;;6488657;39;8886;-57
2022/12/03 23:02:29;;;;;;;;;36.00;27.25;;;;;;;;6488623;39;8844;-57
2022/12/03 23:08:34;;;;;;;;;27.50;26.25;;;;;;;;6488690;39;8989;-57
2022/12/03 23:14:36;;;;;;;;;42.75;30.25;;;;;;;;6488505;31;9011;-57
2022/12/03 23:20:47;;;;;;;;;38.50;37.50;;;;;;;;6488344;39;9049;-57
2022/12/03 23:26:49;;;;;;;;;40.50;36.00;;;;;;;;6488404;39;9043;-57
2022/12/03 23:32:52;;;;;;;;;39.25;31.75;;;;;;;;6489655;39;8875;-58
2022/12/03 23:38:55;;;;;;;;;42.25;38.50;;;;;;;;6487467;39;8880;-56
2022/12/03 23:44:57;;;;;;;;;38.50;35.25;;;;;;;;6489011;39;9921;-58
2022/12/03 23:51:08;;;;;;;;;44.50;37.75;;;;;;;;6488952;39;9505;-59
2022/12/03 23:57:11;;;;;;;;;51.25;39.25;;;;;;;;6488021;39;8921;-56
